Time;durP1;ratioP1;P1;durP2;ratioP2;P2;SDS_P1;SDS_P2;PMS_P1;PMS_P2;Temp;Humidity;BMP_temperature;BMP_pressure;BME280_temperature;BME280_humidity;BME280_pressure;Samples;Min_cycle;Max_cycle;Signal;HPM_P1;HPM_P2
2023/08/12 00:02:30;;;;;;;8.40;4.75;;;17.60;99.90;;;;;;7588651;19;20121;-73
2023/08/12 00:05:03;;;;;;;11.25;5.50;;;17.60;99.90;;;;;;7590418;19;20704;-72
2023/08/12 00:07:36;;;;;;;7.75;5.43;;;17.70;99.90;;;;;;7589032;19;20048;-73
2023/08/12 00:10:10;;;;;;;6.07;4.28;;;17.60;99.90;;;;;;7593804;19;20055;-73
2023/08/12 00:12:43;;;;;;;7.82;4.53;;;17.60;99.90;;;;;;7591106;19;20021;-73
2023/08/12 00:15:15;;;;;;;10.52;5.10;;;17.60;99.90;;;;;;7592892;19;20487;-71
2023/08/12 00:17:47;;;;;;;6.30;5.32;;;17.60;99.90;;;;;;7590697;19;20022;-73
2023/08/12 00:20:20;;;;;;;6.55;4.30;;;17.50;99.90;;;;;;7592310;19;20015;-74
2023/08/12 00:22:52;;;;;;;5.78;4.35;;;17.50;99.90;;;;;;7586830;19;20023;-75
2023/08/12 00:25:24;;;;;;;4.93;4.05;;;17.50;99.90;;;;;;7592147;19;20803;-76
2023/08/12 00:27:56;;;;;;;5.53;4.72;;;17.50;99.90;;;;;;7592863;19;20051;-74
2023/08/12 00:30:29;;;;;;;7.07;4.68;;;17.40;99.90;;;;;;7589185;19;20018;-73
2023/08/12 00:33:02;;;;;;;5.22;4.63;;;17.30;99.90;;;;;;7589406;19;20023;-75
2023/08/12 00:35:34;;;;;;;;;;;17.30;99.90;;;;;;7587461;19;20028;-73
2023/08/12 00:38:07;;;;;;;9.50;5.10;;;17.30;99.90;;;;;;7590145;19;19990;-73
2023/08/12 00:40:39;;;;;;;8.40;4.78;;;17.30;99.90;;;;;;7587217;19;21944;-76
2023/08/12 00:43:11;;;;;;;8.07;4.90;;;17.30;99.90;;;;;;7587656;19;20022;-74
2023/08/12 00:45:44;;;;;;;7.22;4.72;;;17.30;99.90;;;;;;7584820;19;20023;-72
2023/08/12 00:48:17;;;;;;;8.38;5.38;;;17.20;99.90;;;;;;7592127;19;20026;-72
2023/08/12 00:50:50;;;;;;;6.40;4.65;;;17.20;99.90;;;;;;7582759;19;20022;-74
2023/08/12 00:53:22;;;;;;;7.18;5.53;;;17.20;99.90;;;;;;7589742;19;20018;-72
2023/08/12 00:55:55;;;;;;;5.90;4.60;;;17.10;99.90;;;;;;7585987;19;20015;-74
2023/08/12 00:58:27;;;;;;;9.63;5.28;;;17.10;99.90;;;;;;7588908;19;20051;-72
2023/08/12 01:01:00;;;;;;;6.03;5.07;;;17.10;99.90;;;;;;7590292;19;20848;-74
2023/08/12 01:03:33;;;;;;;7.53;5.10;;;17.10;99.90;;;;;;7589113;19;20030;-73
2023/08/12 01:06:07;;;;;;;11.67;4.90;;;17.10;99.90;;;;;;7591742;19;20358;-73
2023/08/12 01:08:39;;;;;;;9.02;5.40;;;17.10;99.90;;;;;;7591503;19;20858;-74
2023/08/12 01:11:42;;;;;;;9.27;5.03;;;17.00;99.90;;;;;;7591892;19;20045;-73
2023/08/12 01:14:18;;;;;;;7.45;5.80;;;17.00;99.90;;;;;;7585667;19;20487;-71
2023/08/12 01:16:57;;;;;;;7.72;5.40;;;16.90;99.90;;;;;;7592912;19;20034;-72
2023/08/12 01:19:38;;;;;;;7.28;4.90;;;16.90;99.90;;;;;;7594224;19;20048;-73
2023/08/12 01:22:12;;;;;;;8.55;5.13;;;16.80;99.90;;;;;;7597425;19;20018;-72
2023/08/12 01:24:44;;;;;;;;;;;16.80;99.90;;;;;;7591598;19;20030;-73
2023/08/12 01:27:16;;;;;;;9.13;5.50;;;16.80;99.90;;;;;;7595872;19;20687;-74
2023/08/12 01:29:51;;;;;;;8.00;5.13;;;16.80;99.90;;;;;;7590170;19;20047;-73
2023/08/12 01:32:50;;;;;;;7.70;5.32;;;16.80;99.90;;;;;;7597330;19;20022;-73
2023/08/12 01:35:43;;;;;;;9.02;5.93;;;16.70;99.90;;;;;;7594277;19;20019;-74
2023/08/12 01:38:17;;;;;;;8.43;5.10;;;16.70;99.90;;;;;;7600356;19;20026;-72
2023/08/12 01:40:52;;;;;;;7.97;4.95;;;16.70;99.90;;;;;;7593070;19;20019;-72
2023/08/12 01:43:24;;;;;;;7.70;5.20;;;16.70;99.90;;;;;;7589893;19;20030;-73
2023/08/12 01:45:57;;;;;;;6.82;5.47;;;16.60;99.90;;;;;;7595083;19;20354;-72
2023/08/12 01:48:29;;;;;;;8.57;5.43;;;16.60;99.90;;;;;;7597264;19;20156;-72
2023/08/12 01:51:02;;;;;;;7.88;5.55;;;16.60;99.90;;;;;;7596679;19;20025;-74
2023/08/12 01:53:35;;;;;;;11.75;5.53;;;16.50;99.90;;;;;;7593038;19;20029;-74
2023/08/12 01:56:07;;;;;;;14.30;5.68;;;16.50;99.90;;;;;;7596522;19;20026;-73
2023/08/12 01:58:40;;;;;;;6.53;5.32;;;16.40;99.90;;;;;;7592825;19;21016;-73
2023/08/12 02:01:12;;;;;;;8.00;5.47;;;16.40;99.90;;;;;;7594387;19;20106;-72
2023/08/12 02:03:45;;;;;;;9.23;5.32;;;16.40;99.90;;;;;;7583102;19;21321;-73
2023/08/12 02:06:17;;;;;;;6.13;4.90;;;16.40;99.90;;;;;;7590482;19;20137;-73
2023/08/12 02:08:50;;;;;;;8.00;5.25;;;16.40;99.90;;;;;;7592140;19;20025;-73
2023/08/12 02:11:23;;;;;;;7.15;5.05;;;16.30;99.90;;;;;;7597358;19;20028;-72
2023/08/12 02:13:57;;;;;;;5.72;4.90;;;16.30;99.90;;;;;;7586496;19;20021;-72
2023/08/12 02:16:29;;;;;;;6.30;5.10;;;16.20;99.90;;;;;;7590789;19;20102;-73
2023/08/12 02:19:02;;;;;;;11.13;5.90;;;16.20;99.90;;;;;;7592657;19;20022;-73
2023/08/12 02:21:35;;;;;;;11.35;5.88;;;16.20;99.90;;;;;;7593884;19;20029;-73
2023/08/12 02:24:08;;;;;;;10.95;5.43;;;16.20;99.90;;;;;;7588923;19;20025;-73
2023/08/12 02:26:42;;;;;;;9.82;5.65;;;16.20;99.90;;;;;;7592634;19;20906;-75
2023/08/12 02:29:15;;;;;;;7.22;5.20;;;16.20;99.90;;;;;;7581271;19;21119;-72
2023/08/12 02:31:47;;;;;;;11.80;5.75;;;16.20;99.90;;;;;;7592026;19;20989;-73
2023/08/12 02:34:19;;;;;;;6.80;5.80;;;16.20;99.90;;;;;;7588025;19;20908;-72
2023/08/12 02:36:51;;;;;;;20.45;6.05;;;16.10;99.90;;;;;;7590334;19;21579;-72
2023/08/12 02:39:23;;;;;;;9.55;6.35;;;16.10;99.90;;;;;;7594452;19;20021;-72
2023/08/12 02:41:56;;;;;;;13.15;6.68;;;16.10;99.90;;;;;;7591395;19;20940;-73
2023/08/12 02:44:28;;;;;;;9.32;6.13;;;16.00;99.90;;;;;;7590556;19;20019;-73
2023/08/12 02:47:01;;;;;;;9.27;6.17;;;15.90;99.90;;;;;;7588954;19;20126;-73
2023/08/12 02:49:33;;;;;;;6.28;5.68;;;15.90;99.90;;;;;;7592834;19;20280;-72
2023/08/12 02:52:06;;;;;;;6.32;5.68;;;15.90;99.90;;;;;;7597143;19;20027;-72
2023/08/12 02:54:38;;;;;;;8.48;5.88;;;15.90;99.90;;;;;;7591112;19;20025;-73
2023/08/12 02:57:10;;;;;;;9.68;6.07;;;15.90;99.90;;;;;;7592038;19;20014;-75
2023/08/12 02:59:43;;;;;;;7.85;5.97;;;15.90;99.90;;;;;;7590659;19;20022;-72
2023/08/12 03:02:16;;;;;;;7.35;5.72;;;15.90;99.90;;;;;;7589796;19;20022;-72
2023/08/12 03:04:48;;;;;;;9.73;6.20;;;15.90;99.90;;;;;;7592977;19;20023;-72
2023/08/12 03:07:21;;;;;;;10.48;6.13;;;15.80;99.90;;;;;;7590706;19;20511;-74
2023/08/12 03:09:53;;;;;;;8.30;5.30;;;15.80;99.90;;;;;;7590894;19;20478;-73
2023/08/12 03:12:25;;;;;;;8.27;6.07;;;15.80;99.90;;;;;;7593854;19;20018;-73
2023/08/12 03:14:58;;;;;;;9.93;5.63;;;15.80;99.90;;;;;;7590258;19;20673;-72
2023/08/12 03:17:31;;;;;;;8.15;5.75;;;15.70;99.90;;;;;;7591913;19;20019;-72
2023/08/12 03:20:05;;;;;;;8.18;5.80;;;15.70;99.90;;;;;;7591565;19;20022;-72
2023/08/12 03:22:38;;;;;;;8.70;6.03;;;15.60;99.90;;;;;;7591551;19;20026;-74
2023/08/12 03:25:10;;;;;;;6.55;5.55;;;15.70;99.90;;;;;;7592020;19;20461;-72
2023/08/12 03:27:42;;;;;;;7.78;5.45;;;15.70;99.90;;;;;;7590257;19;20140;-73
2023/08/12 03:30:15;;;;;;;8.35;6.45;;;15.70;99.90;;;;;;7591339;19;20054;-73
2023/08/12 03:32:48;;;;;;;8.48;6.25;;;15.60;99.90;;;;;;7589398;19;20026;-72
2023/08/12 03:35:21;;;;;;;8.63;6.37;;;15.60;99.90;;;;;;7588181;19;20086;-72
2023/08/12 03:37:54;;;;;;;8.38;6.20;;;15.50;99.90;;;;;;7590692;19;20821;-74
2023/08/12 03:40:26;;;;;;;;;;;15.50;99.90;;;;;;7594021;19;20018;-72
2023/08/12 03:43:00;;;;;;;8.43;6.20;;;15.50;99.90;;;;;;7586998;19;20427;-74
2023/08/12 03:45:33;;;;;;;10.05;6.40;;;15.50;99.90;;;;;;7591177;19;20022;-74
2023/08/12 03:48:06;;;;;;;;;;;;;;;;;;7589343;19;20018;-72
2023/08/12 03:50:39;;;;;;;7.45;6.30;;;15.40;99.90;;;;;;7593339;19;19922;-73
2023/08/12 03:53:12;;;;;;;12.57;6.30;;;15.30;99.90;;;;;;7590280;19;20042;-73
2023/08/12 03:55:45;;;;;;;8.93;6.20;;;15.20;99.90;;;;;;7589567;19;20034;-74
2023/08/12 03:58:20;;;;;;;8.52;6.63;;;15.20;99.90;;;;;;7593737;19;20294;-75
2023/08/12 04:00:52;;;;;;;7.72;5.53;;;15.10;99.90;;;;;;7588748;19;20877;-72
2023/08/12 04:03:25;;;;;;;7.70;6.40;;;15.20;99.90;;;;;;7590534;19;20118;-73
2023/08/12 04:05:57;;;;;;;9.27;5.73;;;15.20;99.90;;;;;;7587503;19;20022;-72
2023/08/12 04:08:32;;;;;;;9.40;5.90;;;15.20;99.90;;;;;;7593211;19;20010;-72
2023/08/12 04:11:04;;;;;;;9.63;6.30;;;15.20;99.90;;;;;;7589231;19;20496;-74
2023/08/12 04:13:37;;;;;;;12.48;6.55;;;15.20;99.90;;;;;;7592893;19;20018;-74
2023/08/12 04:16:10;;;;;;;10.35;6.93;;;15.20;99.90;;;;;;7585095;19;20087;-72
2023/08/12 04:18:43;;;;;;;8.03;6.17;;;15.00;99.90;;;;;;7592620;19;20017;-72
2023/08/12 04:21:15;;;;;;;7.73;5.80;;;15.10;99.90;;;;;;7588914;19;20018;-73
2023/08/12 04:23:47;;;;;;;9.25;5.60;;;15.10;99.90;;;;;;7586318;19;20295;-72
2023/08/12 04:26:20;;;;;;;7.20;5.93;;;15.10;99.90;;;;;;7590846;19;20018;-74
2023/08/12 04:28:53;;;;;;;6.83;6.13;;;15.00;99.90;;;;;;7589718;19;21213;-73
2023/08/12 04:31:26;;;;;;;7.70;5.68;;;15.00;99.90;;;;;;7590714;19;20015;-72
2023/08/12 04:33:58;;;;;;;11.47;6.20;;;15.00;99.90;;;;;;7589026;19;21406;-72
2023/08/12 04:36:32;;;;;;;8.07;5.82;;;15.10;99.90;;;;;;7582765;19;20018;-73
2023/08/12 04:39:07;;;;;;;10.40;5.78;;;15.10;99.90;;;;;;7589821;19;20022;-73
2023/08/12 04:41:39;;;;;;;8.53;6.40;;;15.10;99.90;;;;;;7590774;19;20022;-75
2023/08/12 04:44:12;;;;;;;11.30;6.20;;;15.10;99.90;;;;;;7586082;19;20026;-73
2023/08/12 04:46:44;;;;;;;8.35;5.95;;;15.20;99.90;;;;;;7589601;19;20014;-73
2023/08/12 04:49:17;;;;;;;9.10;5.82;;;15.30;99.90;;;;;;7592133;19;20026;-74
2023/08/12 04:51:52;;;;;;;11.65;6.68;;;15.40;99.90;;;;;;7595827;19;22048;-73
2023/08/12 04:54:25;;;;;;;13.23;6.00;;;15.50;99.90;;;;;;7597055;19;20113;-74
2023/08/12 04:56:59;;;;;;;10.18;5.57;;;15.50;99.90;;;;;;7595431;19;20018;-72
2023/08/12 04:59:31;;;;;;;8.88;6.22;;;15.50;99.90;;;;;;7596603;19;20054;-75
2023/08/12 05:02:04;;;;;;;6.15;5.53;;;15.60;99.90;;;;;;7595635;19;20053;-73
2023/08/12 05:04:38;;;;;;;6.43;5.82;;;15.60;99.90;;;;;;7591756;19;20479;-73
2023/08/12 05:07:11;;;;;;;8.00;5.32;;;15.70;99.90;;;;;;7596230;19;20017;-73
2023/08/12 05:09:46;;;;;;;9.35;5.70;;;15.70;99.90;;;;;;7598096;19;20022;-73
2023/08/12 05:12:20;;;;;;;7.03;5.50;;;15.70;99.90;;;;;;7599036;19;20022;-72
2023/08/12 05:14:52;;;;;;;8.02;5.65;;;15.80;99.90;;;;;;7595461;19;20133;-72
2023/08/12 05:17:24;;;;;;;12.02;5.72;;;15.80;99.90;;;;;;7598226;19;20023;-72
2023/08/12 05:19:57;;;;;;;8.70;5.63;;;15.90;99.90;;;;;;7593257;19;20022;-76
2023/08/12 05:22:29;;;;;;;9.57;5.78;;;16.00;99.90;;;;;;7601595;19;20023;-73
2023/08/12 05:25:02;;;;;;;9.93;6.82;;;16.00;99.90;;;;;;7595725;19;20022;-74
2023/08/12 05:27:34;;;;;;;6.60;5.30;;;16.10;99.90;;;;;;7598895;19;20026;-73
2023/08/12 05:30:07;;;;;;;8.55;5.97;;;16.20;99.90;;;;;;7595795;19;20032;-72
2023/08/12 05:32:39;;;;;;;11.40;6.03;;;16.30;99.90;;;;;;7599255;19;20086;-73
2023/08/12 05:35:11;;;;;;;7.80;5.80;;;16.40;99.90;;;;;;7590812;19;20047;-72
2023/08/12 05:37:44;;;;;;;7.30;5.90;;;16.50;99.90;;;;;;7600483;19;21640;-72
2023/08/12 05:40:16;;;;;;;6.72;6.03;;;16.60;99.90;;;;;;7597564;19;20014;-73
2023/08/12 05:42:48;;;;;;;8.02;5.90;;;16.70;99.90;;;;;;7598280;19;20026;-72
2023/08/12 05:45:21;;;;;;;9.13;5.43;;;16.80;99.90;;;;;;7596995;19;20025;-72
2023/08/12 05:47:53;;;;;;;6.82;5.78;;;17.00;99.90;;;;;;7592584;19;20015;-72
2023/08/12 05:50:25;;;;;;;6.13;5.20;;;17.10;99.90;;;;;;7595468;19;20022;-73
2023/08/12 05:52:58;;;;;;;7.38;5.30;;;17.20;99.90;;;;;;7594280;19;20022;-74
2023/08/12 05:55:34;;;;;;;7.93;5.07;;;17.30;99.90;;;;;;7598286;19;20025;-73
2023/08/12 05:58:07;;;;;;;8.55;5.63;;;17.40;99.90;;;;;;7593627;19;20007;-72
2023/08/12 06:00:39;;;;;;;8.55;5.03;;;17.60;99.90;;;;;;7598425;19;20010;-72
2023/08/12 06:03:12;;;;;;;6.03;4.95;;;17.70;99.90;;;;;;7594609;19;20040;-72
2023/08/12 06:05:46;;;;;;;5.78;4.72;;;17.90;99.90;;;;;;7599939;19;20021;-74
2023/08/12 06:08:18;;;;;;;7.32;4.80;;;18.00;99.90;;;;;;7597346;19;20033;-73
2023/08/12 06:10:50;;;;;;;7.85;4.72;;;18.20;99.90;;;;;;7597973;19;20030;-72
2023/08/12 06:13:22;;;;;;;6.07;4.90;;;18.30;99.90;;;;;;7598173;19;20122;-72
2023/08/12 06:15:55;;;;;;;6.13;4.75;;;18.50;99.90;;;;;;7597629;19;20022;-73
2023/08/12 06:18:27;;;;;;;7.72;5.15;;;18.60;99.90;;;;;;7598280;19;20014;-73
2023/08/12 06:20:59;;;;;;;6.20;5.05;;;18.80;99.90;;;;;;7594531;19;20015;-73
2023/08/12 06:23:31;;;;;;;6.38;5.15;;;18.90;99.90;;;;;;7594126;19;20030;-72
2023/08/12 06:26:04;;;;;;;7.60;4.70;;;19.10;99.90;;;;;;7593733;19;20015;-73
2023/08/12 06:28:36;;;;;;;6.95;4.70;;;19.30;99.90;;;;;;7594043;19;21089;-73
2023/08/12 06:31:08;;;;;;;6.65;4.53;;;19.40;99.90;;;;;;7594331;19;20412;-74
2023/08/12 06:33:41;;;;;;;6.22;4.38;;;19.60;99.90;;;;;;7593170;19;20040;-73
2023/08/12 06:36:13;;;;;;;5.88;4.85;;;19.70;99.90;;;;;;7592578;19;20022;-72
2023/08/12 06:38:45;;;;;;;6.63;4.57;;;19.80;99.90;;;;;;7594361;19;20026;-74
2023/08/12 06:41:17;;;;;;;4.85;4.18;;;19.90;99.90;;;;;;7588850;19;20019;-73
2023/08/12 06:43:50;;;;;;;6.45;4.30;;;20.20;99.90;;;;;;7595804;19;20600;-72
2023/08/12 06:46:22;;;;;;;10.93;4.60;;;20.30;99.90;;;;;;7593521;19;20011;-74
2023/08/12 06:48:55;;;;;;;4.25;3.85;;;20.50;99.90;;;;;;7595990;19;20022;-72
2023/08/12 06:51:27;;;;;;;8.07;4.50;;;20.70;99.90;;;;;;7598117;19;20018;-73
2023/08/12 06:54:00;;;;;;;4.80;4.10;;;20.90;99.90;;;;;;7594275;19;20017;-73
2023/08/12 06:56:32;;;;;;;5.65;4.00;;;21.10;99.90;;;;;;7597103;19;21384;-73
2023/08/12 06:59:04;;;;;;;8.88;4.72;;;21.10;99.90;;;;;;7595254;19;20018;-73
2023/08/12 07:01:36;;;;;;;6.22;4.53;;;21.20;99.90;;;;;;7599678;19;20038;-72
2023/08/12 07:04:09;;;;;;;6.32;4.68;;;21.40;99.90;;;;;;7592930;19;20018;-73
2023/08/12 07:06:41;;;;;;;5.75;3.97;;;21.50;99.90;;;;;;7598910;19;20045;-74
2023/08/12 07:09:14;;;;;;;7.23;4.33;;;21.70;99.90;;;;;;7595312;19;20018;-73
2023/08/12 07:11:46;;;;;;;5.80;4.60;;;21.80;99.90;;;;;;7600202;19;20030;-74
2023/08/12 07:14:18;;;;;;;7.40;4.18;;;21.90;99.90;;;;;;7592495;19;20714;-72
2023/08/12 07:16:50;;;;;;;7.25;4.13;;;22.00;99.90;;;;;;7602109;19;20018;-74
2023/08/12 07:19:23;;;;;;;9.18;4.05;;;22.20;99.90;;;;;;7595865;19;20448;-74
2023/08/12 07:21:56;;;;;;;4.50;4.10;;;22.50;99.90;;;;;;7606208;19;20014;-72
2023/08/12 07:24:28;;;;;;;6.60;4.30;;;22.70;99.90;;;;;;7601411;19;20078;-74
2023/08/12 07:27:01;;;;;;;7.45;4.03;;;22.90;99.90;;;;;;7598747;19;20054;-73
2023/08/12 07:29:35;;;;;;;4.57;3.88;;;23.00;99.90;;;;;;7596468;19;20018;-72
2023/08/12 07:32:07;;;;;;;4.18;3.78;;;23.10;99.90;;;;;;7595171;19;20051;-73
2023/08/12 07:34:40;;;;;;;5.43;4.10;;;23.30;99.90;;;;;;7596006;19;20511;-73
2023/08/12 07:37:12;;;;;;;6.50;3.95;;;23.40;99.90;;;;;;7598461;19;20026;-73
2023/08/12 07:39:45;;;;;;;5.80;4.07;;;23.50;99.90;;;;;;7597474;19;20363;-72
2023/08/12 07:42:17;;;;;;;8.10;3.97;;;23.60;99.90;;;;;;7596114;19;20015;-73
2023/08/12 07:44:49;;;;;;;5.80;4.43;;;23.70;99.90;;;;;;7600735;19;20011;-72
2023/08/12 07:47:21;;;;;;;5.53;3.88;;;23.80;99.90;;;;;;7595040;19;20059;-73
2023/08/12 07:49:54;;;;;;;5.05;3.85;;;24.00;99.90;;;;;;7600749;19;20025;-74
2023/08/12 07:52:26;;;;;;;4.30;3.67;;;24.20;99.90;;;;;;7598960;19;21157;-73
2023/08/12 07:54:59;;;;;;;4.55;3.95;;;24.40;99.90;;;;;;7598088;19;21378;-73
2023/08/12 07:57:32;;;;;;;6.07;4.50;;;24.50;99.90;;;;;;7603733;19;20027;-74
2023/08/12 08:00:05;;;;;;;5.67;4.30;;;24.70;99.90;;;;;;7604031;19;20039;-72
2023/08/12 08:02:38;;;;;;;3.63;3.33;;;24.80;99.90;;;;;;7600093;19;20106;-73
2023/08/12 08:05:10;;;;;;;6.13;4.03;;;24.90;99.90;;;;;;7591939;19;20022;-73
2023/08/12 08:07:43;;;;;;;7.20;4.50;;;25.00;99.90;;;;;;7594756;19;20018;-72
2023/08/12 08:10:15;;;;;;;4.57;4.17;;;25.10;99.90;;;;;;7592297;19;20082;-73
2023/08/12 08:12:48;;;;;;;4.60;3.75;;;25.20;99.90;;;;;;7592069;19;21073;-73
2023/08/12 08:15:20;;;;;;;5.05;4.10;;;25.40;99.90;;;;;;7586435;19;20393;-71
2023/08/12 08:17:52;;;;;;;6.13;4.15;;;25.70;99.90;;;;;;7593810;19;20057;-72
2023/08/12 08:20:26;;;;;;;5.22;3.72;;;25.80;99.90;;;;;;7589477;19;20019;-73
2023/08/12 08:22:58;;;;;;;6.22;4.60;;;25.90;99.90;;;;;;7594431;19;20023;-73
2023/08/12 08:25:30;;;;;;;6.30;4.32;;;25.90;99.90;;;;;;7594653;19;20059;-74
2023/08/12 08:28:03;;;;;;;7.13;3.97;;;25.90;99.90;;;;;;7599981;19;20047;-72
2023/08/12 08:30:36;;;;;;;5.23;3.80;;;26.00;99.90;;;;;;7602429;19;20021;-73
2023/08/12 08:33:08;;;;;;;4.28;3.88;;;26.00;99.90;;;;;;7596029;19;20287;-73
2023/08/12 08:35:41;;;;;;;4.13;3.72;;;26.10;99.90;;;;;;7596403;19;20019;-72
2023/08/12 08:38:13;;;;;;;6.80;3.75;;;26.10;98.00;;;;;;7596371;19;20030;-73
2023/08/12 08:40:46;;;;;;;4.35;3.28;;;26.10;97.90;;;;;;7600305;19;20022;-73
2023/08/12 08:43:24;;;;;;;4.35;3.38;;;26.10;97.60;;;;;;7597607;19;20014;-72
2023/08/12 08:45:57;;;;;;;4.28;3.13;;;26.30;97.40;;;;;;7599126;19;20023;-72
2023/08/12 08:48:29;;;;;;;5.07;3.47;;;26.60;96.80;;;;;;7596308;19;20018;-72
2023/08/12 08:51:03;;;;;;;3.67;3.38;;;26.70;95.80;;;;;;7601815;19;20033;-74
2023/08/12 08:53:39;;;;;;;4.03;3.53;;;26.80;95.30;;;;;;7597763;19;20859;-73
2023/08/12 08:56:12;;;;;;;4.20;3.58;;;26.90;95.90;;;;;;7593993;19;20026;-72
2023/08/12 08:58:46;;;;;;;3.65;3.25;;;27.00;94.30;;;;;;7597264;19;20014;-72
2023/08/12 09:01:22;;;;;;;4.53;3.35;;;27.10;94.80;;;;;;7598547;19;20014;-72
2023/08/12 09:03:56;;;;;;;5.68;3.95;;;27.10;94.90;;;;;;7597440;19;20103;-72
2023/08/12 09:06:29;;;;;;;4.75;3.85;;;27.00;95.00;;;;;;7595710;19;20129;-72
2023/08/12 09:09:02;;;;;;;5.95;3.65;;;27.00;94.50;;;;;;7599238;19;20011;-72
2023/08/12 09:11:35;;;;;;;6.60;3.92;;;27.10;95.00;;;;;;7597596;19;20022;-74
2023/08/12 09:14:08;;;;;;;5.70;3.70;;;27.20;95.50;;;;;;7590236;19;20030;-71
2023/08/12 09:16:40;;;;;;;4.40;4.00;;;27.30;94.30;;;;;;7597377;19;20025;-73
2023/08/12 09:19:12;;;;;;;4.75;3.65;;;27.40;94.30;;;;;;7596010;19;20138;-73
2023/08/12 09:21:53;;;;;;;6.80;4.18;;;27.40;94.80;;;;;;7599056;19;20015;-74
2023/08/12 09:24:29;;;;;;;4.43;3.85;;;27.50;94.60;;;;;;7593261;19;20823;-72
2023/08/12 09:27:01;;;;;;;5.05;3.95;;;27.50;94.80;;;;;;7598423;19;20646;-73
2023/08/12 09:29:35;;;;;;;4.68;4.20;;;27.50;95.30;;;;;;7595651;19;20018;-72
2023/08/12 09:32:18;;;;;;;4.15;3.75;;;27.50;95.20;;;;;;7597687;19;20014;-73
2023/08/12 09:34:53;;;;;;;4.70;3.60;;;27.50;95.70;;;;;;7595035;19;20022;-73
2023/08/12 09:37:25;;;;;;;7.55;3.88;;;27.40;94.90;;;;;;7594597;19;20045;-74
2023/08/12 09:39:58;;;;;;;5.15;4.00;;;27.50;94.90;;;;;;7599519;19;20041;-72
2023/08/12 09:42:30;;;;;;;7.15;4.28;;;27.50;94.60;;;;;;7594228;19;20023;-73
2023/08/12 09:45:03;;;;;;;4.45;3.95;;;27.50;94.90;;;;;;7597357;19;20028;-73
2023/08/12 09:47:35;;;;;;;5.22;3.92;;;27.50;95.50;;;;;;7594355;19;20011;-71
2023/08/12 09:50:07;;;;;;;7.78;4.40;;;27.60;96.00;;;;;;7594241;19;20022;-74
2023/08/12 09:52:40;;;;;;;5.03;4.53;;;27.80;95.20;;;;;;7594314;19;20052;-74
2023/08/12 09:55:16;;;;;;;4.90;3.77;;;27.90;94.00;;;;;;7595832;19;20043;-73
2023/08/12 09:57:52;;;;;;;6.22;3.83;;;28.00;94.50;;;;;;7596049;19;21089;-74
2023/08/12 10:00:25;;;;;;;5.85;4.25;;;28.10;93.90;;;;;;7594806;19;20015;-73
2023/08/12 10:03:00;;;;;;;4.82;4.30;;;28.20;93.50;;;;;;7596537;19;20029;-74
2023/08/12 10:05:34;;;;;;;5.88;4.00;;;28.20;93.10;;;;;;7591839;19;21270;-73
2023/08/12 10:08:07;;;;;;;4.32;3.90;;;28.10;94.00;;;;;;7598262;19;20400;-75
2023/08/12 10:10:41;;;;;;;4.97;4.45;;;28.20;95.00;;;;;;7594423;19;20050;-73
2023/08/12 10:13:17;;;;;;;3.67;3.38;;;28.20;93.30;;;;;;7589411;19;20802;-73
2023/08/12 10:15:50;;;;;;;5.13;4.18;;;28.20;93.80;;;;;;7593754;19;20014;-73
2023/08/12 10:18:23;;;;;;;4.38;3.97;;;28.20;93.70;;;;;;7594199;19;20061;-73
2023/08/12 10:20:59;;;;;;;7.05;4.25;;;28.30;93.90;;;;;;7593008;19;20022;-72
2023/08/12 10:23:32;;;;;;;6.15;4.50;;;28.30;94.80;;;;;;7592234;19;20030;-72
2023/08/12 10:26:06;;;;;;;4.50;4.10;;;28.30;94.30;;;;;;7596816;19;20057;-73
2023/08/12 10:28:39;;;;;;;5.18;4.20;;;28.40;93.90;;;;;;7591507;19;20055;-73
2023/08/12 10:31:11;;;;;;;;;;;28.50;93.70;;;;;;7596611;19;20040;-74
2023/08/12 10:33:44;;;;;;;4.55;4.03;;;28.60;93.20;;;;;;7591586;19;19929;-73
2023/08/12 10:36:20;;;;;;;4.88;3.95;;;28.70;93.30;;;;;;7588931;19;20018;-73
2023/08/12 10:38:53;;;;;;;6.18;3.97;;;28.80;92.70;;;;;;7593166;19;20019;-74
2023/08/12 10:41:25;;;;;;;8.75;4.18;;;28.80;92.40;;;;;;7590933;19;20554;-74
2023/08/12 10:44:04;;;;;;;12.93;4.07;;;28.80;92.10;;;;;;7593136;19;20047;-73
2023/08/12 10:46:37;;;;;;;4.70;4.30;;;28.80;91.70;;;;;;7589000;19;20021;-73
2023/08/12 10:49:11;;;;;;;8.30;4.20;;;28.90;91.50;;;;;;7591850;19;20047;-72
2023/08/12 10:51:54;;;;;;;4.63;3.85;;;28.70;91.60;;;;;;7593592;19;20606;-72
2023/08/12 10:54:30;;;;;;;4.70;4.30;;;28.80;91.60;;;;;;7590400;19;20018;-73
2023/08/12 10:57:11;;;;;;;5.40;3.90;;;28.80;92.40;;;;;;7596604;19;20022;-74
2023/08/12 10:59:46;;;;;;;9.20;4.10;;;29.10;91.00;;;;;;7590784;19;20021;-73
2023/08/12 11:02:21;;;;;;;6.65;3.80;;;29.10;90.20;;;;;;7592439;19;20018;-73
2023/08/12 11:04:55;;;;;;;5.38;4.20;;;29.30;90.20;;;;;;7592062;19;20019;-74
2023/08/12 11:07:38;;;;;;;4.60;4.03;;;29.10;88.10;;;;;;7590471;19;20029;-73
2023/08/12 11:10:17;;;;;;;6.77;3.90;;;29.40;88.60;;;;;;7597083;19;20633;-73
2023/08/12 11:12:54;;;;;;;7.00;3.58;;;30.00;90.70;;;;;;7595042;19;20290;-72
2023/08/12 11:15:33;;;;;;;3.90;3.50;;;30.40;86.70;;;;;;7588138;19;20025;-73
2023/08/12 11:18:09;;;;;;;4.68;3.50;;;30.50;87.70;;;;;;7591299;19;20042;-74
2023/08/12 11:20:41;;;;;;;3.70;3.30;;;30.50;83.40;;;;;;7574078;19;20049;-72
2023/08/12 11:23:14;;;;;;;4.22;3.83;;;30.90;85.70;;;;;;7591960;19;20022;-72
2023/08/12 11:25:49;;;;;;;5.05;4.05;;;31.30;82.70;;;;;;7588793;19;20031;-73
2023/08/12 11:28:24;;;;;;;5.22;3.75;;;31.70;81.20;;;;;;7590181;19;20026;-74
2023/08/12 11:30:56;;;;;;;4.35;3.88;;;31.70;81.00;;;;;;7592886;19;20010;-74
2023/08/12 11:33:31;;;;;;;4.90;3.53;;;31.80;81.10;;;;;;7590890;19;20024;-73
2023/08/12 11:36:04;;;;;;;6.65;3.65;;;32.00;78.70;;;;;;7591655;19;20010;-74
2023/08/12 11:38:37;;;;;;;;;;;31.90;78.90;;;;;;7592976;19;20021;-72
2023/08/12 11:41:09;;;;;;;6.80;3.67;;;32.00;80.50;;;;;;7596112;19;20525;-72
2023/08/12 11:43:41;;;;;;;5.53;3.83;;;32.20;77.90;;;;;;7586975;19;20506;-73
2023/08/12 11:46:16;;;;;;;7.78;3.97;;;32.50;79.20;;;;;;7573810;19;20022;-73
2023/08/12 11:48:48;;;;;;;4.30;3.75;;;32.90;74.70;;;;;;7580949;19;20030;-73
2023/08/12 11:51:22;;;;;;;4.30;3.83;;;32.70;75.30;;;;;;7574629;19;20511;-74
2023/08/12 11:53:55;;;;;;;6.18;3.78;;;32.50;75.70;;;;;;7581686;19;20018;-74
2023/08/12 11:56:27;;;;;;;5.72;3.78;;;33.00;78.30;;;;;;7580631;19;20025;-73
2023/08/12 11:59:00;;;;;;;4.55;3.63;;;33.40;73.30;;;;;;7585053;19;20014;-73
2023/08/12 12:01:32;;;;;;;6.82;4.10;;;33.50;73.90;;;;;;7577379;19;20015;-74
2023/08/12 12:04:10;;;;;;;5.15;3.28;;;34.00;71.30;;;;;;7583893;19;20137;-73
2023/08/12 12:06:57;;;;;;;5.38;3.60;;;34.10;67.20;;;;;;7591191;19;20018;-74
2023/08/12 12:09:33;;;;;;;5.53;3.20;;;33.90;69.20;;;;;;7590992;19;20015;-74
2023/08/12 12:12:05;;;;;;;4.35;3.35;;;33.90;66.70;;;;;;7594983;19;20439;-75
2023/08/12 12:14:38;;;;;;;3.40;3.10;;;33.90;66.00;;;;;;7575197;19;20030;-74
2023/08/12 12:17:12;;;;;;;4.13;3.00;;;33.90;65.60;;;;;;7578264;19;20015;-73
2023/08/12 12:19:45;;;;;;;3.10;2.70;;;33.90;63.30;;;;;;7573683;19;20033;-73
2023/08/12 12:22:17;;;;;;;5.13;3.45;;;34.30;63.10;;;;;;7578436;19;20062;-74
2023/08/12 12:24:50;;;;;;;4.55;3.03;;;34.30;63.80;;;;;;7577877;19;20022;-74
2023/08/12 12:27:41;;;;;;;5.00;3.15;;;33.90;63.20;;;;;;7585115;19;20366;-74
2023/08/12 12:30:16;;;;;;;3.10;2.70;;;34.60;66.30;;;;;;7589419;19;20970;-75
2023/08/12 12:32:48;;;;;;;6.25;2.95;;;34.60;62.20;;;;;;7578404;19;20055;-73
2023/08/12 12:35:20;;;;;;;6.50;2.67;;;34.40;60.60;;;;;;7586814;19;20019;-74
2023/08/12 12:37:53;;;;;;;4.82;2.50;;;34.60;60.20;;;;;;7588559;19;20018;-75
2023/08/12 12:40:25;;;;;;;4.55;2.80;;;35.00;59.40;;;;;;7589176;19;20010;-73
2023/08/12 12:42:58;;;;;;;4.63;2.88;;;35.20;59.60;;;;;;7589146;19;20377;-73
2023/08/12 12:45:31;;;;;;;5.55;3.10;;;35.10;57.70;;;;;;7577276;19;20022;-74
2023/08/12 12:48:04;;;;;;;6.32;3.00;;;35.10;59.30;;;;;;7591630;19;20524;-74
2023/08/12 12:50:37;;;;;;;4.47;3.20;;;35.50;59.20;;;;;;7584532;19;20021;-74
2023/08/12 12:53:10;;;;;;;3.08;2.83;;;35.80;56.90;;;;;;7597171;19;20051;-75
2023/08/12 12:55:42;;;;;;;3.85;3.13;;;35.80;57.80;;;;;;7588555;19;20026;-75
2023/08/12 12:58:16;;;;;;;6.57;3.13;;;35.60;58.60;;;;;;7593083;19;20091;-75
2023/08/12 13:00:48;;;;;;;3.05;2.75;;;35.40;58.50;;;;;;7588670;19;20028;-74
2023/08/12 13:03:20;;;;;;;5.53;3.35;;;35.90;58.80;;;;;;7593027;19;20291;-74
2023/08/12 13:05:54;;;;;;;5.50;3.65;;;36.20;59.00;;;;;;7586274;19;20558;-74
2023/08/12 13:08:28;;;;;;;6.68;3.00;;;36.10;59.20;;;;;;7592360;19;20022;-75
2023/08/12 13:11:01;;;;;;;5.10;2.75;;;36.40;55.00;;;;;;7596719;19;20018;-75
2023/08/12 13:13:33;;;;;;;3.47;3.08;;;36.90;58.00;;;;;;7593708;19;20014;-72
2023/08/12 13:16:05;;;;;;;3.83;3.30;;;37.10;54.50;;;;;;7599190;19;20022;-73
2023/08/12 13:18:37;;;;;;;5.45;3.38;;;36.50;54.40;;;;;;7595143;19;20022;-74
2023/08/12 13:21:10;;;;;;;4.20;3.05;;;36.80;56.20;;;;;;7596674;19;20111;-73